sensor_id;sensor_type;location;lat;lon;timestamp;P1;durP1;ratioP1;P2;durP2;ratioP2
12451;SDS011;6291;48.924;12.204;2023-02-04T00:01:31;7.45;;;1.50;;
12451;SDS011;6291;48.924;12.204;2023-02-04T00:06:36;6.20;;;1.38;;
12451;SDS011;6291;48.924;12.204;2023-02-04T00:11:39;6.05;;;1.60;;
12451;SDS011;6291;48.924;12.204;2023-02-04T00:16:42;5.30;;;1.80;;
12451;SDS011;6291;48.924;12.204;2023-02-04T00:21:47;6.88;;;1.73;;
12451;SDS011;6291;48.924;12.204;2023-02-04T00:26:50;6.97;;;1.70;;
12451;SDS011;6291;48.924;12.204;2023-02-04T00:31:54;8.82;;;2.22;;
12451;SDS011;6291;48.924;12.204;2023-02-04T00:36:59;6.87;;;2.00;;
12451;SDS011;6291;48.924;12.204;2023-02-04T00:42:04;8.23;;;1.92;;
12451;SDS011;6291;48.924;12.204;2023-02-04T00:47:09;7.13;;;2.17;;
12451;SDS011;6291;48.924;12.204;2023-02-04T00:52:14;7.18;;;1.98;;
12451;SDS011;6291;48.924;12.204;2023-02-04T00:57:17;7.20;;;2.10;;
12451;SDS011;6291;48.924;12.204;2023-02-04T01:02:21;6.32;;;1.88;;
12451;SDS011;6291;48.924;12.204;2023-02-04T01:07:26;8.80;;;2.00;;
12451;SDS011;6291;48.924;12.204;2023-02-04T01:12:30;7.10;;;1.80;;
12451;SDS011;6291;48.924;12.204;2023-02-04T01:17:33;6.57;;;1.80;;
12451;SDS011;6291;48.924;12.204;2023-02-04T01:22:38;8.85;;;1.85;;
12451;SDS011;6291;48.924;12.204;2023-02-04T01:27:42;7.20;;;1.77;;
12451;SDS011;6291;48.924;12.204;2023-02-04T01:32:46;7.13;;;1.50;;
12451;SDS011;6291;48.924;12.204;2023-02-04T01:37:50;7.57;;;1.55;;
12451;SDS011;6291;48.924;12.204;2023-02-04T01:42:54;6.70;;;1.50;;
12451;SDS011;6291;48.924;12.204;2023-02-04T01:47:57;7.70;;;1.50;;
12451;SDS011;6291;48.924;12.204;2023-02-04T01:53:02;4.45;;;1.05;;
12451;SDS011;6291;48.924;12.204;2023-02-04T01:58:07;7.03;;;1.90;;
12451;SDS011;6291;48.924;12.204;2023-02-04T02:03:12;7.32;;;1.58;;
12451;SDS011;6291;48.924;12.204;2023-02-04T02:08:17;8.18;;;1.70;;
12451;SDS011;6291;48.924;12.204;2023-02-04T02:13:20;6.53;;;1.45;;
12451;SDS011;6291;48.924;12.204;2023-02-04T02:18:25;6.57;;;1.40;;
12451;SDS011;6291;48.924;12.204;2023-02-04T02:23:43;7.15;;;1.40;;
12451;SDS011;6291;48.924;12.204;2023-02-04T02:28:48;8.82;;;1.90;;
12451;SDS011;6291;48.924;12.204;2023-02-04T02:33:52;6.47;;;1.40;;
12451;SDS011;6291;48.924;12.204;2023-02-04T02:38:57;5.45;;;1.30;;
12451;SDS011;6291;48.924;12.204;2023-02-04T02:44:00;6.60;;;1.40;;
12451;SDS011;6291;48.924;12.204;2023-02-04T02:49:04;7.13;;;1.40;;
12451;SDS011;6291;48.924;12.204;2023-02-04T02:54:12;8.00;;;1.27;;
12451;SDS011;6291;48.924;12.204;2023-02-04T02:59:24;9.20;;;1.70;;
12451;SDS011;6291;48.924;12.204;2023-02-04T03:04:29;6.07;;;1.40;;
12451;SDS011;6291;48.924;12.204;2023-02-04T03:09:39;8.00;;;1.70;;
12451;SDS011;6291;48.924;12.204;2023-02-04T03:14:42;6.38;;;1.70;;
12451;SDS011;6291;48.924;12.204;2023-02-04T03:19:46;5.80;;;1.67;;
12451;SDS011;6291;48.924;12.204;2023-02-04T03:24:51;8.07;;;1.80;;
12451;SDS011;6291;48.924;12.204;2023-02-04T03:29:54;8.30;;;1.70;;
12451;SDS011;6291;48.924;12.204;2023-02-04T03:34:57;8.43;;;1.83;;
12451;SDS011;6291;48.924;12.204;2023-02-04T03:40:02;5.93;;;1.67;;
12451;SDS011;6291;48.924;12.204;2023-02-04T03:45:06;3.63;;;1.00;;
12451;SDS011;6291;48.924;12.204;2023-02-04T03:50:10;10.80;;;2.40;;
12451;SDS011;6291;48.924;12.204;2023-02-04T03:55:16;9.02;;;2.10;;
12451;SDS011;6291;48.924;12.204;2023-02-04T04:00:19;7.37;;;1.90;;
12451;SDS011;6291;48.924;12.204;2023-02-04T04:05:22;7.80;;;1.90;;
12451;SDS011;6291;48.924;12.204;2023-02-04T04:10:28;7.50;;;1.52;;
12451;SDS011;6291;48.924;12.204;2023-02-04T04:15:32;11.43;;;1.87;;
12451;SDS011;6291;48.924;12.204;2023-02-04T04:20:35;8.77;;;1.77;;
12451;SDS011;6291;48.924;12.204;2023-02-04T04:25:40;5.93;;;1.17;;
12451;SDS011;6291;48.924;12.204;2023-02-04T04:30:43;8.88;;;2.20;;
12451;SDS011;6291;48.924;12.204;2023-02-04T04:35:46;7.27;;;1.67;;
12451;SDS011;6291;48.924;12.204;2023-02-04T04:40:52;6.87;;;1.50;;
12451;SDS011;6291;48.924;12.204;2023-02-04T04:45:55;7.80;;;1.70;;
12451;SDS011;6291;48.924;12.204;2023-02-04T04:50:58;8.38;;;2.00;;
12451;SDS011;6291;48.924;12.204;2023-02-04T04:56:03;5.82;;;1.83;;
12451;SDS011;6291;48.924;12.204;2023-02-04T05:01:06;5.82;;;1.50;;
12451;SDS011;6291;48.924;12.204;2023-02-04T05:06:10;5.57;;;1.70;;
12451;SDS011;6291;48.924;12.204;2023-02-04T05:11:14;8.80;;;1.80;;
12451;SDS011;6291;48.924;12.204;2023-02-04T05:16:18;7.73;;;2.00;;
12451;SDS011;6291;48.924;12.204;2023-02-04T05:21:21;6.00;;;1.60;;
12451;SDS011;6291;48.924;12.204;2023-02-04T05:26:26;9.15;;;1.60;;
12451;SDS011;6291;48.924;12.204;2023-02-04T05:31:31;6.30;;;1.47;;
12451;SDS011;6291;48.924;12.204;2023-02-04T05:36:35;8.43;;;1.63;;
12451;SDS011;6291;48.924;12.204;2023-02-04T05:41:39;7.55;;;1.33;;
12451;SDS011;6291;48.924;12.204;2023-02-04T05:46:43;2.72;;;0.90;;
12451;SDS011;6291;48.924;12.204;2023-02-04T05:51:46;3.60;;;0.63;;
12451;SDS011;6291;48.924;12.204;2023-02-04T05:56:50;1.67;;;0.23;;
12451;SDS011;6291;48.924;12.204;2023-02-04T06:01:54;0.93;;;0.30;;
12451;SDS011;6291;48.924;12.204;2023-02-04T06:06:57;0.77;;;0.30;;
12451;SDS011;6291;48.924;12.204;2023-02-04T06:12:02;0.80;;;0.40;;
12451;SDS011;6291;48.924;12.204;2023-02-04T06:17:06;0.70;;;0.40;;
12451;SDS011;6291;48.924;12.204;2023-02-04T06:22:09;0.98;;;0.38;;
12451;SDS011;6291;48.924;12.204;2023-02-04T06:27:14;0.97;;;0.40;;
12451;SDS011;6291;48.924;12.204;2023-02-04T06:32:23;2.88;;;0.82;;
12451;SDS011;6291;48.924;12.204;2023-02-04T06:37:26;5.78;;;1.38;;
12451;SDS011;6291;48.924;12.204;2023-02-04T06:42:31;2.75;;;1.75;;
12451;SDS011;6291;48.924;12.204;2023-02-04T06:47:34;2.10;;;0.70;;
12451;SDS011;6291;48.924;12.204;2023-02-04T06:52:38;4.00;;;1.00;;
12451;SDS011;6291;48.924;12.204;2023-02-04T06:57:42;4.10;;;1.10;;
12451;SDS011;6291;48.924;12.204;2023-02-04T07:02:46;2.35;;;1.25;;
12451;SDS011;6291;48.924;12.204;2023-02-04T07:07:49;1.58;;;1.10;;
12451;SDS011;6291;48.924;12.204;2023-02-04T07:12:54;1.75;;;1.25;;
12451;SDS011;6291;48.924;12.204;2023-02-04T07:17:58;1.55;;;1.00;;
12451;SDS011;6291;48.924;12.204;2023-02-04T07:23:01;1.70;;;0.80;;
12451;SDS011;6291;48.924;12.204;2023-02-04T07:28:06;1.83;;;1.10;;
12451;SDS011;6291;48.924;12.204;2023-02-04T07:33:09;2.45;;;1.30;;
12451;SDS011;6291;48.924;12.204;2023-02-04T07:38:13;5.25;;;2.72;;
12451;SDS011;6291;48.924;12.204;2023-02-04T07:43:18;1.47;;;1.00;;
12451;SDS011;6291;48.924;12.204;2023-02-04T07:48:21;5.40;;;3.15;;
12451;SDS011;6291;48.924;12.204;2023-02-04T07:53:24;16.50;;;8.77;;
12451;SDS011;6291;48.924;12.204;2023-02-04T07:58:29;1.30;;;0.80;;
12451;SDS011;6291;48.924;12.204;2023-02-04T08:03:32;1.15;;;0.93;;
12451;SDS011;6291;48.924;12.204;2023-02-04T08:08:37;1.60;;;0.90;;
12451;SDS011;6291;48.924;12.204;2023-02-04T08:13:42;2.10;;;0.80;;
12451;SDS011;6291;48.924;12.204;2023-02-04T08:18:45;0.60;;;0.50;;
12451;SDS011;6291;48.924;12.204;2023-02-04T08:23:48;0.60;;;0.55;;
12451;SDS011;6291;48.924;12.204;2023-02-04T08:28:53;0.60;;;0.40;;
12451;SDS011;6291;48.924;12.204;2023-02-04T08:33:56;1.95;;;0.50;;
12451;SDS011;6291;48.924;12.204;2023-02-04T08:39:00;0.95;;;0.57;;
12451;SDS011;6291;48.924;12.204;2023-02-04T08:44:05;1.80;;;1.10;;
12451;SDS011;6291;48.924;12.204;2023-02-04T08:49:08;0.50;;;0.40;;
12451;SDS011;6291;48.924;12.204;2023-02-04T08:54:12;0.82;;;0.70;;
12451;SDS011;6291;48.924;12.204;2023-02-04T08:59:16;1.63;;;0.50;;
12451;SDS011;6291;48.924;12.204;2023-02-04T09:04:20;1.90;;;0.60;;
12451;SDS011;6291;48.924;12.204;2023-02-04T09:09:25;1.00;;;0.77;;
12451;SDS011;6291;48.924;12.204;2023-02-04T09:14:30;1.02;;;0.40;;
12451;SDS011;6291;48.924;12.204;2023-02-04T09:19:33;0.77;;;0.50;;
12451;SDS011;6291;48.924;12.204;2023-02-04T09:24:36;0.87;;;0.60;;
12451;SDS011;6291;48.924;12.204;2023-02-04T09:29:41;6.63;;;3.63;;
12451;SDS011;6291;48.924;12.204;2023-02-04T09:34:45;4.97;;;2.63;;
12451;SDS011;6291;48.924;12.204;2023-02-04T09:39:48;11.18;;;5.40;;
12451;SDS011;6291;48.924;12.204;2023-02-04T09:44:53;6.60;;;3.78;;
12451;SDS011;6291;48.924;12.204;2023-02-04T09:49:56;6.07;;;3.00;;
12451;SDS011;6291;48.924;12.204;2023-02-04T09:55:00;11.52;;;7.18;;
12451;SDS011;6291;48.924;12.204;2023-02-04T10:05:16;0.90;;;0.50;;
12451;SDS011;6291;48.924;12.204;2023-02-04T10:10:23;0.53;;;0.40;;
12451;SDS011;6291;48.924;12.204;2023-02-04T10:15:29;0.90;;;0.50;;
12451;SDS011;6291;48.924;12.204;2023-02-04T10:20:33;1.10;;;0.40;;
12451;SDS011;6291;48.924;12.204;2023-02-04T10:25:37;0.52;;;0.30;;
12451;SDS011;6291;48.924;12.204;2023-02-04T10:30:45;0.47;;;0.35;;
12451;SDS011;6291;48.924;12.204;2023-02-04T10:35:49;1.10;;;0.25;;
12451;SDS011;6291;48.924;12.204;2023-02-04T10:41:00;0.30;;;0.20;;
12451;SDS011;6291;48.924;12.204;2023-02-04T10:46:06;0.40;;;0.30;;
12451;SDS011;6291;48.924;12.204;2023-02-04T10:51:09;0.30;;;0.30;;
12451;SDS011;6291;48.924;12.204;2023-02-04T10:56:15;4.37;;;2.80;;
12451;SDS011;6291;48.924;12.204;2023-02-04T11:01:21;1.10;;;0.63;;
12451;SDS011;6291;48.924;12.204;2023-02-04T11:06:24;1.40;;;0.40;;
12451;SDS011;6291;48.924;12.204;2023-02-04T11:11:28;0.80;;;0.45;;
12451;SDS011;6291;48.924;12.204;2023-02-04T11:16:34;0.60;;;0.60;;
12451;SDS011;6291;48.924;12.204;2023-02-04T11:21:49;0.82;;;0.40;;
12451;SDS011;6291;48.924;12.204;2023-02-04T11:27:04;3.70;;;0.90;;
12451;SDS011;6291;48.924;12.204;2023-02-04T11:37:34;2.00;;;0.70;;
12451;SDS011;6291;48.924;12.204;2023-02-04T11:42:39;0.67;;;0.40;;
12451;SDS011;6291;48.924;12.204;2023-02-04T11:47:45;1.65;;;0.50;;
12451;SDS011;6291;48.924;12.204;2023-02-04T11:52:49;0.50;;;0.40;;
12451;SDS011;6291;48.924;12.204;2023-02-04T11:57:54;1.00;;;0.60;;
12451;SDS011;6291;48.924;12.204;2023-02-04T12:03:00;6.10;;;2.88;;
12451;SDS011;6291;48.924;12.204;2023-02-04T12:08:10;0.90;;;0.40;;
12451;SDS011;6291;48.924;12.204;2023-02-04T12:13:16;0.30;;;0.30;;
12451;SDS011;6291;48.924;12.204;2023-02-04T12:18:22;0.70;;;0.40;;
12451;SDS011;6291;48.924;12.204;2023-02-04T12:23:28;0.60;;;0.40;;
12451;SDS011;6291;48.924;12.204;2023-02-04T12:28:32;1.60;;;0.30;;
12451;SDS011;6291;48.924;12.204;2023-02-04T12:33:36;0.30;;;0.30;;
12451;SDS011;6291;48.924;12.204;2023-02-04T12:38:40;0.38;;;0.38;;
12451;SDS011;6291;48.924;12.204;2023-02-04T12:43:43;0.60;;;0.50;;
12451;SDS011;6291;48.924;12.204;2023-02-04T12:48:48;1.03;;;0.40;;
12451;SDS011;6291;48.924;12.204;2023-02-04T12:53:51;0.43;;;0.30;;
12451;SDS011;6291;48.924;12.204;2023-02-04T12:58:54;0.50;;;0.40;;
12451;SDS011;6291;48.924;12.204;2023-02-04T13:03:59;1.00;;;0.40;;
12451;SDS011;6291;48.924;12.204;2023-02-04T13:09:03;0.70;;;0.50;;
12451;SDS011;6291;48.924;12.204;2023-02-04T13:14:07;0.32;;;0.30;;
12451;SDS011;6291;48.924;12.204;2023-02-04T13:19:11;1.03;;;0.67;;
12451;SDS011;6291;48.924;12.204;2023-02-04T13:24:15;1.70;;;0.40;;
12451;SDS011;6291;48.924;12.204;2023-02-04T13:29:18;1.88;;;0.52;;
12451;SDS011;6291;48.924;12.204;2023-02-04T13:34:23;1.00;;;0.50;;
12451;SDS011;6291;48.924;12.204;2023-02-04T13:39:27;0.90;;;0.30;;
12451;SDS011;6291;48.924;12.204;2023-02-04T13:44:31;2.43;;;0.37;;
12451;SDS011;6291;48.924;12.204;2023-02-04T13:49:36;2.60;;;0.43;;
12451;SDS011;6291;48.924;12.204;2023-02-04T13:54:39;0.43;;;0.43;;
12451;SDS011;6291;48.924;12.204;2023-02-04T13:59:42;0.80;;;0.52;;
12451;SDS011;6291;48.924;12.204;2023-02-04T14:04:47;0.60;;;0.45;;
12451;SDS011;6291;48.924;12.204;2023-02-04T14:09:51;0.50;;;0.50;;
12451;SDS011;6291;48.924;12.204;2023-02-04T14:14:54;1.77;;;0.50;;
12451;SDS011;6291;48.924;12.204;2023-02-04T14:19:59;0.57;;;0.57;;
12451;SDS011;6291;48.924;12.204;2023-02-04T14:25:03;0.80;;;0.50;;
12451;SDS011;6291;48.924;12.204;2023-02-04T14:30:10;0.60;;;0.40;;
12451;SDS011;6291;48.924;12.204;2023-02-04T14:35:19;0.80;;;0.50;;
12451;SDS011;6291;48.924;12.204;2023-02-04T14:40:22;0.50;;;0.50;;
12451;SDS011;6291;48.924;12.204;2023-02-04T14:45:26;0.50;;;0.40;;
12451;SDS011;6291;48.924;12.204;2023-02-04T14:50:31;0.52;;;0.50;;
12451;SDS011;6291;48.924;12.204;2023-02-04T14:55:34;0.60;;;0.50;;
12451;SDS011;6291;48.924;12.204;2023-02-04T15:00:38;1.08;;;0.80;;
12451;SDS011;6291;48.924;12.204;2023-02-04T15:05:43;1.15;;;1.00;;
12451;SDS011;6291;48.924;12.204;2023-02-04T15:10:47;0.90;;;0.70;;
12451;SDS011;6291;48.924;12.204;2023-02-04T15:15:51;1.77;;;0.57;;
12451;SDS011;6291;48.924;12.204;2023-02-04T15:20:56;1.63;;;0.80;;
12451;SDS011;6291;48.924;12.204;2023-02-04T15:25:59;1.58;;;1.15;;
12451;SDS011;6291;48.924;12.204;2023-02-04T15:31:02;0.73;;;0.60;;
12451;SDS011;6291;48.924;12.204;2023-02-04T15:36:08;1.77;;;1.40;;
12451;SDS011;6291;48.924;12.204;2023-02-04T15:41:11;1.50;;;1.30;;
12451;SDS011;6291;48.924;12.204;2023-02-04T15:46:15;1.20;;;1.10;;
12451;SDS011;6291;48.924;12.204;2023-02-04T15:51:20;1.65;;;1.10;;
12451;SDS011;6291;48.924;12.204;2023-02-04T15:56:24;1.53;;;1.03;;
12451;SDS011;6291;48.924;12.204;2023-02-04T16:01:27;1.23;;;1.10;;
12451;SDS011;6291;48.924;12.204;2023-02-04T16:06:32;5.47;;;2.90;;
12451;SDS011;6291;48.924;12.204;2023-02-04T16:11:35;5.90;;;3.88;;
12451;SDS011;6291;48.924;12.204;2023-02-04T16:16:40;8.85;;;4.38;;
12451;SDS011;6291;48.924;12.204;2023-02-04T16:21:45;2.78;;;2.00;;
12451;SDS011;6291;48.924;12.204;2023-02-04T16:26:48;3.35;;;2.00;;
12451;SDS011;6291;48.924;12.204;2023-02-04T16:31:52;2.65;;;2.40;;
12451;SDS011;6291;48.924;12.204;2023-02-04T16:36:58;6.80;;;4.28;;
12451;SDS011;6291;48.924;12.204;2023-02-04T16:42:02;4.82;;;3.08;;
12451;SDS011;6291;48.924;12.204;2023-02-04T16:47:07;3.03;;;2.03;;
12451;SDS011;6291;48.924;12.204;2023-02-04T16:52:12;1.83;;;1.30;;
12451;SDS011;6291;48.924;12.204;2023-02-04T16:57:16;2.13;;;1.35;;
12451;SDS011;6291;48.924;12.204;2023-02-04T17:02:20;3.45;;;2.10;;
12451;SDS011;6291;48.924;12.204;2023-02-04T17:07:26;2.83;;;2.00;;
12451;SDS011;6291;48.924;12.204;2023-02-04T17:12:29;2.53;;;2.00;;
12451;SDS011;6291;48.924;12.204;2023-02-04T17:17:32;3.97;;;2.70;;
12451;SDS011;6291;48.924;12.204;2023-02-04T17:22:38;3.85;;;2.70;;
12451;SDS011;6291;48.924;12.204;2023-02-04T17:27:42;5.78;;;3.95;;
12451;SDS011;6291;48.924;12.204;2023-02-04T17:32:45;12.33;;;6.17;;
12451;SDS011;6291;48.924;12.204;2023-02-04T17:37:50;12.15;;;7.05;;
12451;SDS011;6291;48.924;12.204;2023-02-04T17:42:55;8.27;;;5.63;;
12451;SDS011;6291;48.924;12.204;2023-02-04T17:47:58;7.20;;;4.53;;
12451;SDS011;6291;48.924;12.204;2023-02-04T17:53:03;5.90;;;4.53;;
12451;SDS011;6291;48.924;12.204;2023-02-04T17:58:10;7.75;;;5.22;;
12451;SDS011;6291;48.924;12.204;2023-02-04T18:03:17;7.20;;;5.25;;
12451;SDS011;6291;48.924;12.204;2023-02-04T18:08:24;4.83;;;3.67;;
12451;SDS011;6291;48.924;12.204;2023-02-04T18:13:32;3.72;;;2.65;;
12451;SDS011;6291;48.924;12.204;2023-02-04T18:18:36;2.90;;;2.45;;
12451;SDS011;6291;48.924;12.204;2023-02-04T18:23:42;4.70;;;3.50;;
12451;SDS011;6291;48.924;12.204;2023-02-04T18:28:47;3.80;;;2.90;;
12451;SDS011;6291;48.924;12.204;2023-02-04T18:33:51;4.63;;;3.13;;
12451;SDS011;6291;48.924;12.204;2023-02-04T18:38:56;5.50;;;4.15;;
12451;SDS011;6291;48.924;12.204;2023-02-04T18:44:00;6.90;;;4.78;;
12451;SDS011;6291;48.924;12.204;2023-02-04T18:49:19;5.32;;;3.90;;
12451;SDS011;6291;48.924;12.204;2023-02-04T18:54:31;5.55;;;4.30;;
12451;SDS011;6291;48.924;12.204;2023-02-04T18:59:36;5.65;;;4.10;;
12451;SDS011;6291;48.924;12.204;2023-02-04T19:04:39;6.33;;;4.70;;
12451;SDS011;6291;48.924;12.204;2023-02-04T19:09:48;4.67;;;3.63;;
12451;SDS011;6291;48.924;12.204;2023-02-04T19:14:51;4.07;;;3.30;;
12451;SDS011;6291;48.924;12.204;2023-02-04T19:19:55;5.60;;;3.97;;
12451;SDS011;6291;48.924;12.204;2023-02-04T19:25:15;3.97;;;3.20;;
12451;SDS011;6291;48.924;12.204;2023-02-04T19:30:42;4.30;;;2.90;;
12451;SDS011;6291;48.924;12.204;2023-02-04T19:35:47;3.30;;;3.00;;
12451;SDS011;6291;48.924;12.204;2023-02-04T19:40:51;4.65;;;3.60;;
12451;SDS011;6291;48.924;12.204;2023-02-04T19:45:55;6.30;;;5.10;;
12451;SDS011;6291;48.924;12.204;2023-02-04T19:50:58;8.50;;;5.73;;
12451;SDS011;6291;48.924;12.204;2023-02-04T19:56:04;12.23;;;6.90;;
12451;SDS011;6291;48.924;12.204;2023-02-04T20:01:30;13.10;;;7.65;;
12451;SDS011;6291;48.924;12.204;2023-02-04T20:06:35;11.50;;;7.20;;
12451;SDS011;6291;48.924;12.204;2023-02-04T20:11:47;15.27;;;9.05;;
12451;SDS011;6291;48.924;12.204;2023-02-04T20:17:01;16.90;;;9.48;;
12451;SDS011;6291;48.924;12.204;2023-02-04T20:27:46;11.27;;;7.28;;
12451;SDS011;6291;48.924;12.204;2023-02-04T20:32:56;7.97;;;6.75;;
12451;SDS011;6291;48.924;12.204;2023-02-04T20:38:08;6.57;;;4.68;;
12451;SDS011;6291;48.924;12.204;2023-02-04T20:43:16;5.20;;;4.20;;
12451;SDS011;6291;48.924;12.204;2023-02-04T20:48:25;7.22;;;5.43;;
12451;SDS011;6291;48.924;12.204;2023-02-04T20:53:37;6.72;;;5.07;;
12451;SDS011;6291;48.924;12.204;2023-02-04T20:58:42;5.57;;;4.03;;
12451;SDS011;6291;48.924;12.204;2023-02-04T21:03:48;4.97;;;4.30;;
12451;SDS011;6291;48.924;12.204;2023-02-04T21:08:52;5.95;;;4.30;;
12451;SDS011;6291;48.924;12.204;2023-02-04T21:13:58;8.13;;;5.80;;
12451;SDS011;6291;48.924;12.204;2023-02-04T21:19:01;9.27;;;6.22;;
12451;SDS011;6291;48.924;12.204;2023-02-04T21:29:10;6.73;;;4.70;;
12451;SDS011;6291;48.924;12.204;2023-02-04T22:25:08;8.02;;;5.30;;
12451;SDS011;6291;48.924;12.204;2023-02-04T22:30:14;7.90;;;6.40;;
12451;SDS011;6291;48.924;12.204;2023-02-04T22:35:18;8.80;;;6.77;;
12451;SDS011;6291;48.924;12.204;2023-02-04T22:40:21;7.18;;;4.93;;
12451;SDS011;6291;48.924;12.204;2023-02-04T22:45:26;8.82;;;5.90;;
12451;SDS011;6291;48.924;12.204;2023-02-04T22:50:29;8.20;;;5.75;;
12451;SDS011;6291;48.924;12.204;2023-02-04T22:55:33;8.45;;;6.63;;
12451;SDS011;6291;48.924;12.204;2023-02-04T23:00:38;7.53;;;6.25;;
12451;SDS011;6291;48.924;12.204;2023-02-04T23:05:42;8.37;;;7.07;;
12451;SDS011;6291;48.924;12.204;2023-02-04T23:10:47;7.32;;;6.30;;
12451;SDS011;6291;48.924;12.204;2023-02-04T23:15:51;7.13;;;5.97;;
12451;SDS011;6291;48.924;12.204;2023-02-04T23:20:55;7.20;;;4.80;;
12451;SDS011;6291;48.924;12.204;2023-02-04T23:25:58;5.43;;;4.40;;
12451;SDS011;6291;48.924;12.204;2023-02-04T23:31:05;5.30;;;4.63;;
12451;SDS011;6291;48.924;12.204;2023-02-04T23:36:08;6.35;;;4.60;;
12451;SDS011;6291;48.924;12.204;2023-02-04T23:41:12;5.55;;;4.55;;
12451;SDS011;6291;48.924;12.204;2023-02-04T23:46:17;6.80;;;4.67;;
12451;SDS011;6291;48.924;12.204;2023-02-04T23:51:20;5.63;;;4.53;;
12451;SDS011;6291;48.924;12.204;2023-02-04T23:56:24;4.63;;;4.13;;
